Time;durP1;ratioP1;P1;durP2;ratioP2;P2;SDS_P1;SDS_P2;PMS_P1;PMS_P2;Temp;Humidity;BMP_temperature;BMP_pressure;BME280_temperature;BME280_humidity;BME280_pressure;Samples;Min_cycle;Max_cycle;Signal;HPM_P1;HPM_P2
2022/01/19 00:02:25;;;;;;;38.25;18.20;;;4.60;99.90;;;;;;6249667;22;20019;-77
2022/01/19 00:04:50;;;;;;;32.20;17.27;;;4.50;99.90;;;;;;6277165;22;20016;-77
2022/01/19 00:07:16;;;;;;;35.35;18.23;;;4.50;99.90;;;;;;6250222;22;20019;-77
2022/01/19 00:09:41;;;;;;;27.60;13.85;;;4.50;99.90;;;;;;6251628;22;20008;-77
2022/01/19 00:12:07;;;;;;;31.27;16.38;;;4.50;99.90;;;;;;6251609;22;20045;-80
2022/01/19 00:14:33;;;;;;;38.55;15.68;;;4.50;99.90;;;;;;6251482;22;20023;-77
2022/01/19 00:16:59;;;;;;;33.05;17.20;;;4.50;99.90;;;;;;6251571;22;20078;-77
2022/01/19 00:19:24;;;;;;;29.50;15.35;;;4.50;99.90;;;;;;6251903;22;20023;-77
2022/01/19 00:21:50;;;;;;;27.40;14.27;;;4.40;99.90;;;;;;6278812;22;20320;-77
2022/01/19 00:24:15;;;;;;;32.17;17.90;;;4.40;99.90;;;;;;6251538;22;20022;-77
2022/01/19 00:26:42;;;;;;;30.05;13.43;;;4.40;99.90;;;;;;6251507;22;20016;-76
2022/01/19 00:29:07;;;;;;;28.48;15.30;;;4.50;99.90;;;;;;6251343;22;20016;-76
2022/01/19 00:31:33;;;;;;;28.80;14.63;;;4.40;99.90;;;;;;6251259;22;20043;-77
2022/01/19 00:33:59;;;;;;;26.08;12.70;;;4.40;99.90;;;;;;6251452;22;20427;-77
2022/01/19 00:36:26;;;;;;;28.80;13.88;;;4.40;99.90;;;;;;6251378;22;20020;-77
2022/01/19 00:38:52;;;;;;;28.45;13.88;;;4.40;99.90;;;;;;6251219;22;20054;-77
2022/01/19 00:41:17;;;;;;;26.00;14.35;;;4.40;99.90;;;;;;6278633;22;20019;-77
2022/01/19 00:43:43;;;;;;;27.20;14.50;;;4.40;99.90;;;;;;6251297;22;20019;-77
2022/01/19 00:46:09;;;;;;;24.48;10.60;;;4.30;99.90;;;;;;6278222;22;20016;-77
2022/01/19 00:48:35;;;;;;;25.65;12.27;;;4.30;99.90;;;;;;6278246;22;20016;-77
2022/01/19 00:51:01;;;;;;;26.95;12.82;;;4.30;99.90;;;;;;6278576;22;20008;-76
2022/01/19 00:53:26;;;;;;;25.35;13.40;;;4.30;99.90;;;;;;6251220;22;20339;-76
2022/01/19 00:55:53;;;;;;;25.63;13.13;;;4.20;99.90;;;;;;6251190;22;20336;-76
2022/01/19 00:58:18;;;;;;;30.20;12.98;;;4.20;99.90;;;;;;6278428;22;20055;-77
2022/01/19 01:00:44;;;;;;;28.55;13.18;;;4.20;99.90;;;;;;6251079;22;20020;-77
2022/01/19 01:03:10;;;;;;;22.08;11.45;;;4.20;99.90;;;;;;6278673;22;20078;-77
2022/01/19 01:05:36;;;;;;;25.80;12.02;;;4.20;99.90;;;;;;6251067;22;20020;-76
2022/01/19 01:08:02;;;;;;;26.58;14.90;;;4.20;99.90;;;;;;6251076;22;20051;-76
2022/01/19 01:10:30;;;;;;;23.45;12.60;;;4.10;99.90;;;;;;6250971;22;20039;-76
2022/01/19 01:13:06;;;;;;;27.52;14.15;;;4.10;99.90;;;;;;6250922;22;20023;-76
2022/01/19 01:15:48;;;;;;;27.85;13.88;;;4.10;99.90;;;;;;6250949;22;20485;-76
2022/01/19 01:18:18;;;;;;;23.48;12.18;;;4.10;99.90;;;;;;6250972;22;20517;-76
2022/01/19 01:20:44;;;;;;;28.05;12.88;;;4.10;99.90;;;;;;6250610;22;20051;-76
2022/01/19 01:23:10;;;;;;;26.23;14.10;;;4.10;99.90;;;;;;6251032;22;20024;-77
2022/01/19 01:25:38;;;;;;;28.70;15.93;;;4.10;99.90;;;;;;6278313;22;20018;-77
2022/01/19 01:28:04;;;;;;;29.33;14.90;;;4.10;99.90;;;;;;6250828;22;20451;-77
2022/01/19 01:30:30;;;;;;;28.75;15.70;;;4.00;99.90;;;;;;6250703;22;20020;-77
2022/01/19 01:32:55;;;;;;;29.90;15.05;;;4.00;99.90;;;;;;6250833;22;20020;-77
2022/01/19 01:35:21;;;;;;;36.38;15.43;;;4.00;99.90;;;;;;6250835;22;20012;-77
2022/01/19 01:37:47;;;;;;;33.33;15.65;;;4.00;99.90;;;;;;6250696;22;20101;-77
2022/01/19 01:40:13;;;;;;;32.33;17.33;;;4.00;99.90;;;;;;6250614;22;20020;-77
2022/01/19 01:42:40;;;;;;;33.20;15.68;;;4.00;99.90;;;;;;6250580;22;20022;-77
2022/01/19 01:45:11;;;;;;;35.10;17.52;;;4.00;99.90;;;;;;6250627;22;20019;-77
2022/01/19 01:47:43;;;;;;;34.63;19.02;;;4.00;99.90;;;;;;6250722;22;20015;-77
2022/01/19 01:55:24;;;;;;;45.65;21.88;;;3.90;99.90;;;;;;6250453;22;20343;-76
2022/01/19 01:57:50;;;;;;;43.80;22.42;;;4.00;99.90;;;;;;6250573;22;20016;-76
2022/01/19 02:00:22;;;;;;;48.13;22.65;;;4.00;99.90;;;;;;6250381;22;20023;-76
2022/01/19 02:02:48;;;;;;;43.47;22.25;;;3.90;99.90;;;;;;6250507;22;20020;-77
2022/01/19 02:05:15;;;;;;;48.15;22.23;;;4.00;99.90;;;;;;6250400;22;20340;-76
2022/01/19 02:10:18;;;;;;;59.33;24.98;;;4.00;99.90;;;;;;6277819;22;20065;-76
2022/01/19 02:23:47;;;;;;;62.30;27.67;;;4.00;99.90;;;;;;6277644;22;20081;-76
2022/01/19 02:26:20;;;;;;;53.78;24.00;;;4.00;99.90;;;;;;6250308;22;20336;-76
2022/01/19 02:29:18;;;;;;;;;;;4.00;99.90;;;;;;6250745;22;20030;-76
2022/01/19 02:36:32;;;;;;;63.65;24.27;;;4.00;99.90;;;;;;6250098;22;19922;-77
2022/01/19 02:42:42;;;;;;;61.97;25.52;;;3.90;99.90;;;;;;6250056;22;20054;-76
2022/01/19 02:50:26;;;;;;;69.47;29.40;;;3.90;99.90;;;;;;6250022;22;20055;-76
2022/01/19 02:52:52;;;;;;;61.85;27.13;;;3.90;99.90;;;;;;6277156;22;20019;-77
2022/01/19 02:55:17;;;;;;;49.28;20.05;;;3.90;99.90;;;;;;6250040;22;20340;-76
2022/01/19 02:57:46;;;;;;;71.13;31.27;;;4.00;99.90;;;;;;6249922;22;20026;-76
2022/01/19 03:11:09;;;;;;;62.45;25.98;;;3.90;99.90;;;;;;6277574;22;20024;-76
2022/01/19 03:13:35;;;;;;;73.25;27.20;;;3.90;99.90;;;;;;6249879;22;20378;-76
2022/01/19 03:16:00;;;;;;;64.20;25.40;;;3.90;99.90;;;;;;6249671;22;20077;-76
2022/01/19 03:18:26;;;;;;;77.03;27.55;;;3.90;99.90;;;;;;6249998;22;20126;-76
2022/01/19 03:20:52;;;;;;;75.18;28.83;;;3.90;99.90;;;;;;6277200;22;20008;-76
2022/01/19 03:23:20;;;;;;;67.82;27.90;;;3.90;99.90;;;;;;6277297;22;20015;-76
2022/01/19 03:25:50;;;;;;;78.82;29.60;;;3.90;99.90;;;;;;6249926;22;20020;-76
2022/01/19 03:28:17;;;;;;;92.93;30.20;;;3.90;99.90;;;;;;6249774;22;20058;-76
2022/01/19 03:30:44;;;;;;;79.95;28.15;;;4.00;99.90;;;;;;6249631;22;20023;-76
2022/01/19 03:33:11;;;;;;;86.32;31.52;;;4.00;99.90;;;;;;6249910;22;20122;-76
2022/01/19 03:35:38;;;;;;;75.32;31.27;;;4.00;99.90;;;;;;6249804;22;20051;-76
2022/01/19 03:38:05;;;;;;;83.30;29.52;;;4.00;99.90;;;;;;6249803;22;20023;-76
2022/01/19 03:40:31;;;;;;;94.45;33.28;;;4.00;99.90;;;;;;6249709;22;20012;-76
2022/01/19 03:42:56;;;;;;;89.20;32.47;;;4.10;99.90;;;;;;6278302;22;20019;-76
2022/01/19 03:45:22;;;;;;;100.55;32.78;;;4.10;99.90;;;;;;6251868;22;20012;-76
2022/01/19 03:47:55;;;;;;;93.70;30.80;;;4.10;99.90;;;;;;6251637;22;20024;-76
2022/01/19 03:50:21;;;;;;;92.75;28.48;;;4.20;99.90;;;;;;6251892;22;20012;-76
2022/01/19 03:52:47;;;;;;;87.20;31.95;;;4.20;99.90;;;;;;6251708;22;20043;-76
2022/01/19 03:55:13;;;;;;;82.82;28.77;;;4.20;99.90;;;;;;6251680;22;20011;-76
2022/01/19 03:57:39;;;;;;;72.93;24.02;;;4.20;99.90;;;;;;6251711;22;20023;-76
2022/01/19 04:00:07;;;;;;;74.18;23.88;;;4.20;99.90;;;;;;6251643;22;20435;-76
2022/01/19 04:02:34;;;;;;;75.70;24.73;;;4.30;99.90;;;;;;6251589;22;20019;-76
2022/01/19 04:05:07;;;;;;;81.25;28.98;;;4.20;99.90;;;;;;6251626;22;20027;-76
2022/01/19 04:07:32;;;;;;;83.35;27.48;;;4.20;99.90;;;;;;6251686;22;20348;-76
2022/01/19 04:09:58;;;;;;;74.90;25.17;;;4.20;99.90;;;;;;6251646;22;20016;-76
2022/01/19 04:12:42;;;;;;;77.47;25.48;;;4.20;99.90;;;;;;6251485;22;20023;-76
2022/01/19 04:15:08;;;;;;;78.47;26.48;;;4.20;99.90;;;;;;6251585;22;20094;-76
2022/01/19 04:17:35;;;;;;;86.35;27.13;;;4.20;99.90;;;;;;6251571;22;20015;-76
2022/01/19 04:20:01;;;;;;;88.68;26.92;;;4.20;99.90;;;;;;6278907;22;20011;-76
2022/01/19 04:22:26;;;;;;;94.85;27.35;;;4.20;99.90;;;;;;6278400;22;20024;-76
2022/01/19 04:24:52;;;;;;;101.30;28.95;;;4.20;99.90;;;;;;6251493;22;20343;-76
2022/01/19 04:30:08;;;;;;;89.60;27.70;;;4.20;99.90;;;;;;6278809;22;20103;-76
2022/01/19 04:32:47;;;;;;;80.30;26.48;;;4.20;99.90;;;;;;6278799;22;20011;-77
2022/01/19 04:35:16;;;;;;;76.78;26.05;;;4.20;99.90;;;;;;6251247;22;20452;-77
2022/01/19 04:49:04;;;;;;;81.85;25.25;;;4.30;99.90;;;;;;6241467;22;20024;-76
2022/01/19 05:07:52;;;;;;;90.55;24.40;;;4.20;99.90;;;;;;6251048;22;20024;-76
2022/01/19 05:15:34;;;;;;;84.38;24.83;;;4.20;99.90;;;;;;6250912;22;20031;-76
2022/01/19 05:18:01;;;;;;;84.82;25.13;;;4.30;99.90;;;;;;6251045;22;20348;-76
2022/01/19 05:20:27;;;;;;;81.80;25.52;;;4.20;99.90;;;;;;6278521;22;20087;-76
2022/01/19 05:22:52;;;;;;;88.75;26.15;;;4.20;99.90;;;;;;6251046;22;20512;-76
2022/01/19 05:25:18;;;;;;;84.50;25.70;;;4.20;99.90;;;;;;6277995;22;20019;-76
2022/01/19 05:27:44;;;;;;;84.82;26.08;;;4.30;99.90;;;;;;6278176;22;20011;-76
2022/01/19 05:30:10;;;;;;;77.13;25.23;;;4.30;99.90;;;;;;6250555;22;20058;-76
2022/01/19 05:32:36;;;;;;;84.50;24.88;;;4.30;99.90;;;;;;6250681;22;20016;-76
2022/01/19 05:35:01;;;;;;;91.65;24.95;;;4.30;99.90;;;;;;6250758;22;20054;-77
2022/01/19 05:37:27;;;;;;;94.03;26.45;;;4.30;99.90;;;;;;6277848;22;20444;-76
2022/01/19 05:39:53;;;;;;;89.20;26.88;;;4.30;99.90;;;;;;6277834;22;20024;-76
2022/01/19 05:42:18;;;;;;;81.90;25.35;;;4.20;99.90;;;;;;6250620;22;20019;-76
2022/01/19 05:44:45;;;;;;;101.07;28.08;;;4.20;99.90;;;;;;6250716;22;20011;-77
2022/01/19 05:47:12;;;;;;;76.97;24.95;;;4.30;99.90;;;;;;6250603;22;20027;-76
2022/01/19 05:49:39;;;;;;;69.90;21.35;;;4.20;99.90;;;;;;6250616;22;20012;-76
2022/01/19 05:52:06;;;;;;;73.45;23.92;;;4.20;99.90;;;;;;6250553;22;20019;-76
2022/01/19 05:54:32;;;;;;;81.22;26.92;;;4.20;99.90;;;;;;6250655;22;20019;-77
2022/01/19 05:56:58;;;;;;;72.13;23.13;;;4.20;99.90;;;;;;6250528;22;20081;-76
2022/01/19 05:59:25;;;;;;;81.88;24.40;;;4.20;99.90;;;;;;6250512;22;20016;-76
2022/01/19 06:01:50;;;;;;;82.00;23.38;;;4.20;99.90;;;;;;6250433;22;20328;-76
2022/01/19 06:04:16;;;;;;;78.15;22.63;;;4.20;99.90;;;;;;6277882;22;20023;-77
2022/01/19 06:06:42;;;;;;;66.80;22.80;;;4.20;99.90;;;;;;6250249;22;20026;-76
2022/01/19 06:09:22;;;;;;;74.07;23.20;;;4.20;99.90;;;;;;6250363;22;20016;-77
2022/01/19 06:11:49;;;;;;;78.90;23.75;;;4.20;99.90;;;;;;6250361;22;20019;-76
2022/01/19 06:14:14;;;;;;;73.75;22.50;;;4.20;99.90;;;;;;6250415;22;20015;-77
2022/01/19 06:16:41;;;;;;;74.22;22.02;;;4.10;99.90;;;;;;6277970;22;20011;-76
2022/01/19 06:19:07;;;;;;;69.05;23.52;;;4.10;99.90;;;;;;6250270;22;20049;-76
2022/01/19 06:21:33;;;;;;;70.15;22.95;;;4.10;99.90;;;;;;6250239;22;20020;-76
2022/01/19 06:23:58;;;;;;;71.88;22.98;;;4.10;99.90;;;;;;6250341;22;20444;-76
2022/01/19 06:26:24;;;;;;;63.45;21.38;;;4.10;99.90;;;;;;6250364;22;20026;-76
2022/01/19 06:28:51;;;;;;;70.03;24.13;;;4.00;99.90;;;;;;6250303;22;20101;-76
2022/01/19 06:31:17;;;;;;;65.43;21.77;;;4.00;99.90;;;;;;6277286;22;20022;-77
2022/01/19 06:33:42;;;;;;;67.50;22.70;;;4.00;99.90;;;;;;6277630;22;20051;-76
2022/01/19 06:36:08;;;;;;;68.63;24.95;;;4.00;99.90;;;;;;6277604;22;20086;-77
2022/01/19 06:38:34;;;;;;;70.55;24.10;;;4.00;99.90;;;;;;6250199;22;20046;-76
2022/01/19 06:40:59;;;;;;;67.43;22.63;;;4.00;99.90;;;;;;6250004;22;20015;-76
2022/01/19 06:43:25;;;;;;;72.68;23.48;;;4.00;99.90;;;;;;6250148;22;20019;-76
2022/01/19 06:45:52;;;;;;;67.95;20.92;;;4.00;99.90;;;;;;6250193;22;20019;-76
2022/01/19 06:48:17;;;;;;;67.03;22.70;;;4.00;99.90;;;;;;6250089;22;20026;-76
2022/01/19 06:50:43;;;;;;;66.05;22.52;;;4.00;99.90;;;;;;6250157;22;20015;-76
2022/01/19 06:53:09;;;;;;;62.35;22.52;;;4.00;99.90;;;;;;6250137;22;20094;-76
2022/01/19 06:55:34;;;;;;;65.13;23.27;;;4.00;99.90;;;;;;6250125;22;20026;-76
2022/01/19 06:58:00;;;;;;;62.70;22.77;;;4.00;99.90;;;;;;6250064;22;20094;-76
2022/01/19 07:00:26;;;;;;;60.47;21.90;;;4.00;99.90;;;;;;6277075;22;20070;-76
2022/01/19 07:02:53;;;;;;;63.53;22.00;;;4.00;99.90;;;;;;6277125;22;20024;-77
2022/01/19 07:05:18;;;;;;;58.83;23.60;;;4.00;99.90;;;;;;6277434;22;20023;-76
2022/01/19 07:07:44;;;;;;;58.67;21.80;;;4.00;99.90;;;;;;6249959;22;20024;-77
2022/01/19 07:10:10;;;;;;;63.72;23.08;;;4.00;99.90;;;;;;6249948;22;20011;-76
2022/01/19 07:12:36;;;;;;;57.97;21.45;;;4.00;99.90;;;;;;6249997;22;20008;-77
2022/01/19 07:15:04;;;;;;;58.35;22.30;;;4.00;99.90;;;;;;6249860;22;20054;-77
2022/01/19 07:17:29;;;;;;;56.55;19.77;;;4.00;99.90;;;;;;6276687;22;20055;-77
2022/01/19 07:19:55;;;;;;;63.35;23.25;;;4.00;99.90;;;;;;6277335;22;20016;-77
2022/01/19 07:22:21;;;;;;;66.10;22.52;;;4.00;99.90;;;;;;6277235;22;20023;-77
2022/01/19 07:24:46;;;;;;;55.15;22.88;;;4.00;99.90;;;;;;6249813;22;20023;-77
2022/01/19 07:27:12;;;;;;;54.20;20.73;;;4.00;99.90;;;;;;6249675;22;20012;-77
2022/01/19 07:29:38;;;;;;;64.85;21.58;;;4.00;99.90;;;;;;6249650;22;20398;-77
2022/01/19 07:32:04;;;;;;;62.42;24.83;;;4.00;99.90;;;;;;6249222;22;20098;-77
2022/01/19 07:34:30;;;;;;;62.55;23.42;;;4.00;99.90;;;;;;6249600;22;20073;-77
2022/01/19 07:36:56;;;;;;;62.50;23.00;;;4.00;99.90;;;;;;6249532;22;20012;-76
2022/01/19 07:39:23;;;;;;;58.70;21.35;;;4.00;99.90;;;;;;6249511;22;20065;-77
2022/01/19 07:41:49;;;;;;;60.95;22.63;;;4.00;99.90;;;;;;6249434;22;20023;-77
2022/01/19 07:44:14;;;;;;;57.10;22.42;;;4.10;99.90;;;;;;6249554;22;20056;-77
2022/01/19 07:46:41;;;;;;;62.75;25.17;;;4.10;99.90;;;;;;6248444;22;20098;-76
2022/01/19 07:49:07;;;;;;;66.65;25.23;;;4.10;99.90;;;;;;6249224;22;20027;-76
2022/01/19 07:51:33;;;;;;;69.93;27.30;;;4.10;99.90;;;;;;6277050;22;20332;-77
2022/01/19 07:53:59;;;;;;;72.53;30.25;;;4.10;99.90;;;;;;6249513;22;20044;-76
2022/01/19 07:56:24;;;;;;;60.40;22.38;;;4.10;99.90;;;;;;6249427;22;20019;-77
2022/01/19 07:58:50;;;;;;;70.20;25.10;;;4.10;99.90;;;;;;6276959;22;20086;-77
2022/01/19 08:01:16;;;;;;;68.82;25.75;;;4.10;99.90;;;;;;6249535;22;20094;-78
2022/01/19 08:03:42;;;;;;;70.55;27.55;;;4.10;99.90;;;;;;6249444;22;20091;-78
2022/01/19 08:06:08;;;;;;;56.90;22.90;;;4.20;99.90;;;;;;6249417;22;20058;-77
2022/01/19 08:08:35;;;;;;;69.30;26.52;;;4.20;99.90;;;;;;6249437;22;20070;-77
2022/01/19 08:11:01;;;;;;;65.57;25.65;;;4.20;99.90;;;;;;6248388;22;20018;-76
2022/01/19 08:13:26;;;;;;;68.60;26.80;;;4.20;99.90;;;;;;6249162;22;20106;-76
2022/01/19 08:15:52;;;;;;;66.75;25.40;;;4.20;99.90;;;;;;6276317;22;20026;-76
2022/01/19 08:18:17;;;;;;;62.10;26.52;;;4.20;99.90;;;;;;6249252;22;20020;-76
2022/01/19 08:20:43;;;;;;;62.38;24.40;;;4.20;99.90;;;;;;6249261;22;20019;-76
2022/01/19 08:23:09;;;;;;;73.68;24.33;;;4.20;99.90;;;;;;6249183;22;20020;-77
2022/01/19 08:25:35;;;;;;;65.57;27.23;;;4.20;99.90;;;;;;6249284;22;20011;-76
2022/01/19 08:28:01;;;;;;;60.55;24.90;;;4.20;99.90;;;;;;6249399;22;20024;-76
2022/01/19 08:30:27;;;;;;;65.15;24.83;;;4.20;99.90;;;;;;6278258;22;20059;-76
2022/01/19 08:32:52;;;;;;;61.42;26.10;;;4.20;99.90;;;;;;6251070;22;20027;-75
2022/01/19 08:35:18;;;;;;;68.18;27.05;;;4.20;99.90;;;;;;6278176;22;20084;-76
2022/01/19 08:37:44;;;;;;;56.88;23.45;;;4.20;99.90;;;;;;6250945;22;20011;-76
2022/01/19 08:40:11;;;;;;;64.30;26.52;;;4.30;99.90;;;;;;6250986;22;20031;-76
2022/01/19 08:42:37;;;;;;;68.00;28.33;;;4.30;99.90;;;;;;6250831;22;20015;-76
2022/01/19 08:45:08;;;;;;;68.15;26.95;;;4.30;99.90;;;;;;6250865;22;20050;-76
2022/01/19 08:47:38;;;;;;;59.97;25.05;;;4.30;99.90;;;;;;6250665;22;20022;-76
2022/01/19 08:50:07;;;;;;;70.32;27.58;;;4.30;99.90;;;;;;6278321;22;20018;-77
2022/01/19 08:52:34;;;;;;;67.80;28.45;;;4.30;99.90;;;;;;6277870;22;20012;-77
2022/01/19 08:54:59;;;;;;;67.53;25.70;;;4.30;99.90;;;;;;6250797;22;20091;-76
2022/01/19 08:57:25;;;;;;;65.18;25.98;;;4.30;99.90;;;;;;6250702;22;20031;-77
2022/01/19 08:59:51;;;;;;;64.32;27.08;;;4.30;99.90;;;;;;6250873;22;20020;-77
2022/01/19 09:02:17;;;;;;;64.78;26.63;;;4.40;99.90;;;;;;6250710;22;20023;-76
2022/01/19 09:04:45;;;;;;;70.72;27.40;;;4.30;99.90;;;;;;6250456;22;20073;-76
2022/01/19 09:07:10;;;;;;;63.25;26.45;;;4.30;99.90;;;;;;6277206;22;20015;-77
2022/01/19 09:09:36;;;;;;;64.95;25.77;;;4.40;99.90;;;;;;6250625;22;20347;-77
2022/01/19 09:12:02;;;;;;;70.88;26.92;;;4.40;99.90;;;;;;6250202;22;20020;-76
2022/01/19 09:14:28;;;;;;;57.47;24.40;;;4.40;99.90;;;;;;6250398;22;20023;-76
2022/01/19 09:16:54;;;;;;;62.30;24.73;;;4.40;99.90;;;;;;6250764;22;20098;-77
2022/01/19 09:19:20;;;;;;;69.78;25.17;;;4.40;99.90;;;;;;6250576;22;20106;-78
2022/01/19 09:21:48;;;;;;;62.25;23.88;;;4.40;99.90;;;;;;6250502;22;20095;-77
2022/01/19 09:24:13;;;;;;;69.45;27.15;;;4.50;99.90;;;;;;6250512;22;20020;-77
2022/01/19 09:26:39;;;;;;;69.55;25.77;;;4.50;99.90;;;;;;6250102;22;20012;-76
2022/01/19 09:29:05;;;;;;;69.63;28.23;;;4.50;99.90;;;;;;6250472;22;20015;-77
2022/01/19 09:31:33;;;;;;;68.13;26.67;;;4.50;99.90;;;;;;6250187;22;20459;-77
2022/01/19 09:34:09;;;;;;;68.15;26.77;;;4.50;99.90;;;;;;6250013;22;20020;-76
2022/01/19 09:36:46;;;;;;;70.70;27.98;;;4.60;99.90;;;;;;6250497;22;20529;-77
2022/01/19 09:39:23;;;;;;;62.22;25.30;;;4.60;99.90;;;;;;6277432;22;20008;-77
2022/01/19 09:41:49;;;;;;;61.35;26.50;;;4.60;99.90;;;;;;6249979;22;20016;-77
2022/01/19 09:44:20;;;;;;;79.03;29.27;;;4.60;99.90;;;;;;6250021;22;20470;-77
2022/01/19 09:46:46;;;;;;;69.93;27.10;;;4.60;99.90;;;;;;6250268;22;20065;-76
2022/01/19 09:49:13;;;;;;;75.03;27.83;;;4.70;99.90;;;;;;6250223;22;20451;-77
2022/01/19 09:51:47;;;;;;;69.57;27.63;;;4.60;99.90;;;;;;6249936;22;20023;-76
2022/01/19 09:54:15;;;;;;;70.80;28.25;;;4.60;99.90;;;;;;6250169;22;20087;-77
2022/01/19 09:56:42;;;;;;;72.38;28.63;;;4.60;99.90;;;;;;6239425;22;20019;-76
2022/01/19 09:59:08;;;;;;;66.43;29.33;;;4.60;99.90;;;;;;6271358;22;20014;-77
2022/01/19 10:01:34;;;;;;;73.45;29.63;;;4.70;99.90;;;;;;6249523;22;20419;-76
2022/01/19 10:04:19;;;;;;;82.57;33.00;;;4.70;99.90;;;;;;6277350;22;20015;-77
2022/01/19 10:06:44;;;;;;;75.75;29.33;;;4.70;99.90;;;;;;6249919;22;20015;-78
2022/01/19 10:09:10;;;;;;;68.22;27.83;;;4.80;99.90;;;;;;6275631;22;20069;-77
2022/01/19 10:16:58;;;;;;;69.13;28.85;;;4.80;99.90;;;;;;6277273;22;20022;-78
2022/01/19 10:17:10;;;;;;;72.55;30.60;;;4.90;99.90;;;;;;6250127;22;20047;-78
2022/01/19 10:19:43;;;;;;;70.85;29.25;;;4.90;99.90;;;;;;6250186;22;20503;-78
2022/01/19 10:22:26;;;;;;;68.80;29.13;;;4.90;99.90;;;;;;6250153;22;20024;-78
2022/01/19 10:24:56;;;;;;;68.78;29.48;;;5.00;99.90;;;;;;6250153;22;20278;-78
2022/01/19 10:27:32;;;;;;;80.35;32.25;;;5.00;99.90;;;;;;6250141;22;20393;-77
2022/01/19 10:30:04;;;;;;;69.93;29.10;;;5.00;99.90;;;;;;6250076;22;20012;-78
2022/01/19 10:32:42;;;;;;;70.72;28.95;;;5.10;99.90;;;;;;6249950;22;20024;-77
2022/01/19 10:35:16;;;;;;;81.68;30.67;;;5.00;99.90;;;;;;6277588;22;20016;-77
2022/01/19 10:37:42;;;;;;;71.47;29.63;;;5.10;99.90;;;;;;6277336;22;20062;-77
2022/01/19 10:40:15;;;;;;;79.57;30.00;;;5.10;99.90;;;;;;6250025;22;20024;-77
2022/01/19 10:42:41;;;;;;;72.25;30.17;;;5.10;99.90;;;;;;6250311;22;20465;-77
2022/01/19 10:45:09;;;;;;;71.85;29.85;;;5.10;99.90;;;;;;6250091;22;20020;-77
2022/01/19 10:47:50;;;;;;;64.93;28.08;;;5.10;99.90;;;;;;6249946;22;20102;-78
2022/01/19 10:50:30;;;;;;;70.45;29.85;;;5.10;99.90;;;;;;6249868;22;20313;-77
2022/01/19 10:52:58;;;;;;;66.88;27.83;;;5.10;99.90;;;;;;6249399;22;20019;-78
2022/01/19 10:55:25;;;;;;;75.70;31.23;;;5.10;99.90;;;;;;6249907;22;20012;-77
2022/01/19 10:57:52;;;;;;;79.00;32.00;;;5.20;99.90;;;;;;6250344;22;20106;-78
2022/01/19 11:00:22;;;;;;;69.60;28.83;;;5.20;99.90;;;;;;6249937;22;20016;-78
2022/01/19 11:02:51;;;;;;;66.72;29.08;;;5.30;99.90;;;;;;6249822;22;20011;-78
2022/01/19 11:05:37;;;;;;;75.38;30.00;;;5.30;99.90;;;;;;6249553;22;20339;-78
2022/01/19 11:08:03;;;;;;;69.13;29.00;;;5.40;99.90;;;;;;6249507;22;20466;-78
2022/01/19 11:10:31;;;;;;;76.70;30.02;;;5.40;99.90;;;;;;6249775;22;20012;-78
2022/01/19 11:12:56;;;;;;;68.55;29.73;;;5.50;99.90;;;;;;6276700;22;20444;-78
2022/01/19 11:15:22;;;;;;;66.97;27.70;;;5.50;99.90;;;;;;6249864;22;20018;-78
2022/01/19 11:17:49;;;;;;;56.90;24.45;;;5.70;99.90;;;;;;6249732;22;20443;-78
2022/01/19 11:20:18;;;;;;;57.25;26.38;;;5.90;99.90;;;;;;6249791;22;20030;-78
2022/01/19 11:23:06;;;;;;;58.75;25.98;;;6.00;99.90;;;;;;6249677;22;20094;-77
2022/01/19 11:25:44;;;;;;;58.85;24.58;;;6.00;99.90;;;;;;6249562;22;20066;-77
2022/01/19 11:28:10;;;;;;;50.40;23.33;;;6.10;99.90;;;;;;6276749;22;20389;-80
2022/01/19 11:30:45;;;;;;;51.97;23.15;;;6.10;99.90;;;;;;6249394;22;20016;-77
2022/01/19 11:33:11;;;;;;;53.25;20.83;;;6.10;99.90;;;;;;6249679;22;20328;-78
2022/01/19 11:35:38;;;;;;;44.78;21.35;;;6.10;99.90;;;;;;6249741;22;20023;-78
2022/01/19 11:38:29;;;;;;;50.30;20.75;;;6.00;99.90;;;;;;6249549;22;20016;-78
2022/01/19 11:40:55;;;;;;;47.88;21.10;;;6.00;99.90;;;;;;6249562;22;20024;-81
2022/01/19 11:43:25;;;;;;;45.50;19.48;;;6.00;99.90;;;;;;6276969;22;20016;-81
2022/01/19 11:45:53;;;;;;;46.10;19.65;;;6.00;99.90;;;;;;6276713;22;20066;-78
2022/01/19 11:48:21;;;;;;;39.67;17.13;;;6.00;99.90;;;;;;6250082;22;20024;-78
2022/01/19 11:50:49;;;;;;;40.17;16.90;;;6.00;99.90;;;;;;6249600;22;20027;-78
2022/01/19 11:53:15;;;;;;;36.65;14.85;;;6.00;99.90;;;;;;6249580;22;20016;-78
2022/01/19 11:55:59;;;;;;;28.83;12.23;;;6.00;99.90;;;;;;6249668;22;20099;-78
2022/01/19 11:58:25;;;;;;;30.33;11.93;;;6.00;99.90;;;;;;6249647;22;20024;-79
2022/01/19 12:00:54;;;;;;;23.35;12.07;;;6.00;99.90;;;;;;6276697;22;20439;-80
2022/01/19 12:03:31;;;;;;;27.13;11.80;;;6.10;99.90;;;;;;6276512;22;20026;-78
2022/01/19 12:05:57;;;;;;;26.95;10.52;;;6.10;99.90;;;;;;6251525;22;20046;-77
2022/01/19 12:08:35;;;;;;;24.70;10.90;;;6.10;99.90;;;;;;6250403;22;20455;-77
2022/01/19 12:11:22;;;;;;;20.45;9.60;;;6.10;99.90;;;;;;6251225;22;20019;-78
2022/01/19 12:14:06;;;;;;;20.90;8.55;;;6.10;99.90;;;;;;6251248;22;20012;-77
2022/01/19 12:16:51;;;;;;;22.13;9.13;;;6.10;99.90;;;;;;6278820;22;20015;-78
2022/01/19 12:19:20;;;;;;;21.95;8.60;;;6.10;99.90;;;;;;6251426;22;20493;-76
2022/01/19 12:21:50;;;;;;;21.15;10.02;;;6.10;99.90;;;;;;6278216;22;20474;-83
2022/01/19 12:24:29;;;;;;;24.35;9.75;;;6.10;99.90;;;;;;6251371;22;20012;-77
2022/01/19 12:26:55;;;;;;;17.98;9.95;;;6.20;99.90;;;;;;6251394;22;20027;-78
2022/01/19 12:29:48;;;;;;;21.50;9.27;;;6.20;99.90;;;;;;6251336;22;20015;-77
2022/01/19 12:32:17;;;;;;;20.55;9.15;;;6.30;99.90;;;;;;6246843;22;20050;-77
2022/01/19 12:34:53;;;;;;;20.23;9.15;;;6.30;99.90;;;;;;6251172;22;20347;-77
2022/01/19 12:37:34;;;;;;;21.00;9.00;;;6.30;99.90;;;;;;6251356;22;20023;-78
2022/01/19 12:40:25;;;;;;;21.33;8.10;;;6.30;99.90;;;;;;6251211;22;20020;-78
2022/01/19 12:42:54;;;;;;;19.88;8.60;;;6.30;99.90;;;;;;6250008;22;20365;-78
2022/01/19 12:45:26;;;;;;;20.80;9.05;;;6.30;99.90;;;;;;6251099;22;20093;-78
2022/01/19 12:47:56;;;;;;;21.45;8.02;;;6.40;99.90;;;;;;6251204;22;20026;-77
2022/01/19 12:50:28;;;;;;;20.25;8.95;;;6.30;99.90;;;;;;6251109;22;20034;-77
2022/01/19 12:52:56;;;;;;;19.45;8.05;;;6.30;99.90;;;;;;6251001;22;20019;-78
2022/01/19 12:55:23;;;;;;;21.23;8.40;;;6.30;99.90;;;;;;6278400;22;20047;-78
2022/01/19 12:57:51;;;;;;;20.00;8.43;;;6.40;99.90;;;;;;6250924;22;20026;-78
2022/01/19 13:00:29;;;;;;;22.90;7.90;;;6.40;99.90;;;;;;6250852;22;20347;-78
2022/01/19 13:02:57;;;;;;;18.55;7.88;;;6.30;99.90;;;;;;6250958;22;20447;-77
2022/01/19 13:05:27;;;;;;;23.10;8.38;;;6.40;99.90;;;;;;6251030;22;20058;-77
2022/01/19 13:07:58;;;;;;;25.98;9.27;;;6.40;99.90;;;;;;6250940;22;20068;-77
2022/01/19 13:13:13;;;;;;;20.20;7.88;;;6.40;99.90;;;;;;6250795;22;20510;-78
2022/01/19 13:16:00;;;;;;;18.75;8.20;;;6.40;99.90;;;;;;6250398;22;20090;-78
2022/01/19 13:18:34;;;;;;;20.08;7.97;;;6.40;99.90;;;;;;6278251;22;20012;-79
2022/01/19 13:21:13;;;;;;;24.80;9.82;;;6.40;99.90;;;;;;6250767;22;20042;-79
2022/01/19 13:23:56;;;;;;;22.70;7.90;;;6.30;99.90;;;;;;6250862;22;20015;-79
2022/01/19 13:26:22;;;;;;;21.13;7.90;;;6.30;99.90;;;;;;6250705;22;20016;-79
2022/01/19 13:28:48;;;;;;;21.80;9.52;;;6.30;99.90;;;;;;6251062;22;20098;-79
2022/01/19 13:31:20;;;;;;;23.40;8.60;;;6.20;99.90;;;;;;6277802;22;20051;-80
2022/01/19 13:33:58;;;;;;;20.75;7.55;;;6.30;99.90;;;;;;6250714;22;20072;-80
2022/01/19 13:36:26;;;;;;;21.55;7.70;;;6.20;99.90;;;;;;6250691;22;20024;-79
2022/01/19 13:38:54;;;;;;;22.85;7.97;;;6.20;99.90;;;;;;6250449;22;20023;-79
2022/01/19 13:41:20;;;;;;;19.20;8.10;;;6.20;99.90;;;;;;6250564;22;20020;-79
2022/01/19 13:43:46;;;;;;;19.30;8.35;;;6.20;99.90;;;;;;6277980;22;20016;-79
2022/01/19 13:46:17;;;;;;;22.15;8.13;;;6.20;99.90;;;;;;6277995;22;20016;-79
2022/01/19 13:48:47;;;;;;;20.48;8.40;;;6.10;99.90;;;;;;6250534;22;20436;-79
2022/01/19 13:51:18;;;;;;;22.02;7.75;;;6.10;99.90;;;;;;6250726;22;20099;-78
2022/01/19 13:53:49;;;;;;;22.92;8.02;;;6.10;99.90;;;;;;6277870;22;20008;-79
2022/01/19 13:56:25;;;;;;;19.02;8.55;;;6.10;99.90;;;;;;6250368;22;20343;-79
2022/01/19 13:59:17;;;;;;;19.83;9.07;;;6.10;99.90;;;;;;6250531;22;20019;-79
2022/01/19 14:01:52;;;;;;;21.80;7.47;;;6.10;99.90;;;;;;6237047;22;20028;-79
2022/01/19 14:04:18;;;;;;;21.08;8.23;;;6.00;99.90;;;;;;6250397;22;20108;-79
2022/01/19 14:06:48;;;;;;;20.23;8.00;;;6.00;99.90;;;;;;6250359;22;20375;-79
2022/01/19 14:09:27;;;;;;;18.48;6.97;;;6.10;99.90;;;;;;6277445;22;20447;-79
2022/01/19 14:12:06;;;;;;;20.20;7.45;;;6.10;99.90;;;;;;6250354;22;20020;-79